Startpagina
METAR-TAF:

METAR-TAF

Vliegvelden :

Shanghai-Pudong, China

Luchthaven Shanghai Pudong

breedte: 31-07N, lengte: 121-46E, hoogte: 4 m

Actueel weer

Dit bericht is 31 minuten geleden gemaakt, om 01:30 UTC
Wind 6 kt uit het westen, variërend tussen het westzuidwesten en het noordwesten
Temperatuur 28°C
Vochtigheid 89%
Druk 1010 hPa
Zicht: 4000 m
Weinig wolken op 700 ft
nevel

METAR: ZSPD 260130Z 28003MPS 250V310 4000 BR FEW007 28/26 Q1010 NOSIG

Tijdstip: 10:01 (02:01 UTC)

Verwachting

Dit bericht is 4 uur en het 47 minuten geleden gemaakt, om 21:14 UTC
Verwachting geldig van 26 om 00 UTC tot 26 om 24 UTC
Wind 8 kt uit het westnoordwesten
Zicht: 6000 m
Verspreide wolken op 2000 ft

TAF: ZSPD 252114Z 2600/2624 29004MPS 6000 SCT020 TX28/2607Z TN22/2621Z

Waarnemingen en weersverwachtingen van meer dan 4000 vliegvelden (METAR en TAF).

De beschikbare stations zijn de gele en rode punten op de kaart.

Ga met uw muis naar het station om de naam te zien.

Klik dan om waarnemingen en weersverwachtingen te zien.

kaart wijzigen: klik op de groene knoppen met een zwart kruis om in te zoomen, op de groene knop met een streepje om uit te zoomen of op de groene pijlen voor aangrenzende kaarten.


METAR-TAF: